CheckWX is a tool to help pilots better visualize weather data.  It is not intended as a substitute for an official pre-flight weather briefing.

12:04:29 UTC

SCQP TAF
Temuco Airport
Temuco, Switzerland
TAF SCQP 241043Z 2412/2512 23010KT 7000 -RA BKN010 BKN030 TN07/2412Z TX10/2419Z TEMPO 2413/2420 8000 SHRA BKN010 BKN030 BECMG 2420/2422 9999 NSW SCT020 BECMG 2501/2503 33010KT BKN030 BECMG 2507/2509 36010KT 7000 SHRA SCT006 BKN015

Jun-24@
12:00 UTC

Jun-24 @ 12:00 UTC

Jun-24@
20:00 UTC

Jun-24 @ 20:00 UTC

TAF SCQP 241043Z 2412/2512 23010KT 7000 -RA BKN010 BKN030 TN07/2412Z TX10/2419Z
Wind
  • 230° at 10 KTS
Conditions
Light Rain
Cloud Levels
  • Broken at 1,000' AGL
  • Broken at 3,000' AGL

Jun-24@
13:00 UTC

Jun-24 @ 13:00 UTC

Jun-24@
20:00 UTC

Jun-24 @ 20:00 UTC

TEMPO 2413/2420 8000 SHRA BKN010 BKN030

Temporary

Temporary Changes expected for less than half the time period

Conditions
Rain
Cloud Levels
  • Broken at 1,000' AGL
  • Broken at 3,000' AGL

Jun-24@
20:00 UTC

Jun-24 @ 20:00 UTC

Jun-25@
01:00 UTC

Jun-25 @ 01:00 UTC

BECMG 2420/2422 9999 NSW SCT020

Becoming

Becoming Conditions expected by Mon, Jun 24, 2019 @ 22:00 UTC

Wind
  • 230° at 10 KTS
Conditions
No significant weather
Cloud Levels
  • Scattered at 2,000' AGL

Jun-25@
01:00 UTC

Jun-25 @ 01:00 UTC

Jun-25@
07:00 UTC

Jun-25 @ 07:00 UTC

BECMG 2501/2503 33010KT BKN030

Becoming

Becoming Conditions expected by Tue, Jun 25, 2019 @ 03:00 UTC

Wind
  • 330° at 10 KTS
Conditions
No significant weather
Cloud Levels
  • Broken at 3,000' AGL

Jun-25@
07:00 UTC

Jun-25 @ 07:00 UTC

Jun-25@
12:00 UTC

Jun-25 @ 12:00 UTC

BECMG 2507/2509 36010KT 7000 SHRA SCT006 BKN015

Becoming

Becoming Conditions expected by Tue, Jun 25, 2019 @ 09:00 UTC

Wind
  • 360° at 10 KTS
Conditions
Rain
Cloud Levels
  • Scattered at 600' AGL
  • Broken at 1,500' AGL